sensor_id;sensor_type;location;lat;lon;timestamp;P1;durP1;ratioP1;P2;durP2;ratioP2
37477;SDS011;23334;54.316;10.182;2023-08-06T00:01:50;3.13;;;2.10;;
37477;SDS011;23334;54.316;10.182;2023-08-06T00:04:16;1.93;;;1.70;;
37477;SDS011;23334;54.316;10.182;2023-08-06T00:06:42;2.33;;;2.03;;
37477;SDS011;23334;54.316;10.182;2023-08-06T00:09:07;10.43;;;2.10;;
37477;SDS011;23334;54.316;10.182;2023-08-06T00:11:33;2.30;;;1.40;;
37477;SDS011;23334;54.316;10.182;2023-08-06T00:13:59;2.93;;;2.30;;
37477;SDS011;23334;54.316;10.182;2023-08-06T00:16:25;2.73;;;2.37;;
37477;SDS011;23334;54.316;10.182;2023-08-06T00:18:51;2.60;;;2.07;;
37477;SDS011;23334;54.316;10.182;2023-08-06T00:21:16;3.43;;;2.13;;
37477;SDS011;23334;54.316;10.182;2023-08-06T00:23:42;2.53;;;1.90;;
37477;SDS011;23334;54.316;10.182;2023-08-06T00:26:08;4.47;;;1.90;;
37477;SDS011;23334;54.316;10.182;2023-08-06T00:28:34;3.80;;;2.57;;
37477;SDS011;23334;54.316;10.182;2023-08-06T00:31:00;2.20;;;2.00;;
37477;SDS011;23334;54.316;10.182;2023-08-06T00:33:26;5.53;;;2.90;;
37477;SDS011;23334;54.316;10.182;2023-08-06T00:35:52;5.83;;;2.50;;
37477;SDS011;23334;54.316;10.182;2023-08-06T00:38:18;4.83;;;2.20;;
37477;SDS011;23334;54.316;10.182;2023-08-06T00:40:43;3.30;;;2.57;;
37477;SDS011;23334;54.316;10.182;2023-08-06T00:43:09;5.53;;;3.40;;
37477;SDS011;23334;54.316;10.182;2023-08-06T00:45:36;2.73;;;2.47;;
37477;SDS011;23334;54.316;10.182;2023-08-06T00:48:03;4.07;;;2.80;;
37477;SDS011;23334;54.316;10.182;2023-08-06T00:50:30;3.83;;;3.27;;
37477;SDS011;23334;54.316;10.182;2023-08-06T00:52:56;3.53;;;2.50;;
37477;SDS011;23334;54.316;10.182;2023-08-06T00:55:22;5.90;;;2.63;;
37477;SDS011;23334;54.316;10.182;2023-08-06T00:57:48;2.63;;;2.43;;
37477;SDS011;23334;54.316;10.182;2023-08-06T01:00:16;5.13;;;2.43;;
37477;SDS011;23334;54.316;10.182;2023-08-06T01:02:41;4.40;;;2.40;;
37477;SDS011;23334;54.316;10.182;2023-08-06T01:05:07;3.60;;;2.27;;
37477;SDS011;23334;54.316;10.182;2023-08-06T01:10:10;8.67;;;2.70;;
37477;SDS011;23334;54.316;10.182;2023-08-06T01:15:08;2.80;;;2.60;;
37477;SDS011;23334;54.316;10.182;2023-08-06T01:17:37;4.13;;;2.53;;
37477;SDS011;23334;54.316;10.182;2023-08-06T01:20:03;2.13;;;2.00;;
37477;SDS011;23334;54.316;10.182;2023-08-06T01:22:29;2.97;;;2.60;;
37477;SDS011;23334;54.316;10.182;2023-08-06T01:24:55;2.70;;;2.50;;
37477;SDS011;23334;54.316;10.182;2023-08-06T01:27:23;4.27;;;2.67;;
37477;SDS011;23334;54.316;10.182;2023-08-06T01:29:55;5.07;;;2.13;;
37477;SDS011;23334;54.316;10.182;2023-08-06T01:32:22;5.30;;;2.60;;
37477;SDS011;23334;54.316;10.182;2023-08-06T01:34:49;2.83;;;2.63;;
37477;SDS011;23334;54.316;10.182;2023-08-06T01:37:15;4.93;;;2.40;;
37477;SDS011;23334;54.316;10.182;2023-08-06T01:39:44;2.13;;;1.87;;
37477;SDS011;23334;54.316;10.182;2023-08-06T01:42:10;2.33;;;2.13;;
37477;SDS011;23334;54.316;10.182;2023-08-06T01:44:36;2.70;;;2.13;;
37477;SDS011;23334;54.316;10.182;2023-08-06T01:47:02;3.40;;;2.60;;
37477;SDS011;23334;54.316;10.182;2023-08-06T01:49:28;4.27;;;2.27;;
37477;SDS011;23334;54.316;10.182;2023-08-06T01:51:54;6.80;;;2.80;;
37477;SDS011;23334;54.316;10.182;2023-08-06T01:54:20;3.40;;;3.10;;
37477;SDS011;23334;54.316;10.182;2023-08-06T01:56:46;3.00;;;2.80;;
37477;SDS011;23334;54.316;10.182;2023-08-06T01:59:11;2.90;;;2.40;;
37477;SDS011;23334;54.316;10.182;2023-08-06T02:01:37;3.53;;;2.87;;
37477;SDS011;23334;54.316;10.182;2023-08-06T02:04:03;3.13;;;2.90;;
37477;SDS011;23334;54.316;10.182;2023-08-06T02:06:29;4.40;;;2.53;;
37477;SDS011;23334;54.316;10.182;2023-08-06T02:08:55;11.80;;;3.53;;
37477;SDS011;23334;54.316;10.182;2023-08-06T02:11:21;6.23;;;3.47;;
37477;SDS011;23334;54.316;10.182;2023-08-06T02:13:47;2.73;;;2.53;;
37477;SDS011;23334;54.316;10.182;2023-08-06T02:16:12;2.50;;;2.30;;
37477;SDS011;23334;54.316;10.182;2023-08-06T02:18:38;2.87;;;2.67;;
37477;SDS011;23334;54.316;10.182;2023-08-06T02:21:04;3.03;;;2.53;;
37477;SDS011;23334;54.316;10.182;2023-08-06T02:23:30;4.23;;;2.80;;
37477;SDS011;23334;54.316;10.182;2023-08-06T02:28:25;3.43;;;2.37;;
37477;SDS011;23334;54.316;10.182;2023-08-06T02:30:51;4.80;;;3.30;;
37477;SDS011;23334;54.316;10.182;2023-08-06T02:33:17;4.07;;;3.20;;
37477;SDS011;23334;54.316;10.182;2023-08-06T02:35:43;5.77;;;2.63;;
37477;SDS011;23334;54.316;10.182;2023-08-06T02:38:08;3.03;;;2.80;;
37477;SDS011;23334;54.316;10.182;2023-08-06T02:40:34;3.20;;;2.90;;
37477;SDS011;23334;54.316;10.182;2023-08-06T02:43:00;10.60;;;2.70;;
37477;SDS011;23334;54.316;10.182;2023-08-06T02:45:26;4.80;;;2.93;;
37477;SDS011;23334;54.316;10.182;2023-08-06T02:47:52;4.13;;;2.50;;
37477;SDS011;23334;54.316;10.182;2023-08-06T02:50:17;3.87;;;3.00;;
37477;SDS011;23334;54.316;10.182;2023-08-06T02:52:43;3.23;;;2.80;;
37477;SDS011;23334;54.316;10.182;2023-08-06T02:55:09;3.33;;;2.80;;
37477;SDS011;23334;54.316;10.182;2023-08-06T02:57:35;2.70;;;2.37;;
37477;SDS011;23334;54.316;10.182;2023-08-06T03:00:01;4.90;;;3.20;;
37477;SDS011;23334;54.316;10.182;2023-08-06T03:02:27;2.90;;;2.70;;
37477;SDS011;23334;54.316;10.182;2023-08-06T03:04:53;3.03;;;2.73;;
37477;SDS011;23334;54.316;10.182;2023-08-06T03:07:19;2.87;;;2.67;;
37477;SDS011;23334;54.316;10.182;2023-08-06T03:09:45;6.47;;;4.57;;
37477;SDS011;23334;54.316;10.182;2023-08-06T03:12:11;4.80;;;2.90;;
37477;SDS011;23334;54.316;10.182;2023-08-06T03:14:36;3.03;;;2.60;;
37477;SDS011;23334;54.316;10.182;2023-08-06T03:17:02;3.47;;;3.17;;
37477;SDS011;23334;54.316;10.182;2023-08-06T03:19:28;3.50;;;2.70;;
37477;SDS011;23334;54.316;10.182;2023-08-06T03:21:54;3.07;;;2.87;;
37477;SDS011;23334;54.316;10.182;2023-08-06T03:24:20;4.23;;;2.83;;
37477;SDS011;23334;54.316;10.182;2023-08-06T03:26:45;3.60;;;3.30;;
37477;SDS011;23334;54.316;10.182;2023-08-06T03:29:11;6.73;;;2.97;;
37477;SDS011;23334;54.316;10.182;2023-08-06T03:31:37;2.50;;;2.30;;
37477;SDS011;23334;54.316;10.182;2023-08-06T03:34:03;7.93;;;3.33;;
37477;SDS011;23334;54.316;10.182;2023-08-06T03:36:29;4.00;;;3.10;;
37477;SDS011;23334;54.316;10.182;2023-08-06T03:38:55;5.03;;;3.30;;
37477;SDS011;23334;54.316;10.182;2023-08-06T03:41:21;5.27;;;3.30;;
37477;SDS011;23334;54.316;10.182;2023-08-06T03:43:46;4.47;;;3.10;;
37477;SDS011;23334;54.316;10.182;2023-08-06T03:46:12;3.50;;;3.20;;
37477;SDS011;23334;54.316;10.182;2023-08-06T03:48:38;4.80;;;3.10;;
37477;SDS011;23334;54.316;10.182;2023-08-06T03:51:04;5.53;;;3.23;;
37477;SDS011;23334;54.316;10.182;2023-08-06T03:53:30;6.13;;;3.07;;
37477;SDS011;23334;54.316;10.182;2023-08-06T03:55:56;3.67;;;3.00;;
37477;SDS011;23334;54.316;10.182;2023-08-06T03:58:24;9.80;;;3.50;;
37477;SDS011;23334;54.316;10.182;2023-08-06T04:00:57;6.07;;;3.20;;
37477;SDS011;23334;54.316;10.182;2023-08-06T04:03:23;5.30;;;2.73;;
37477;SDS011;23334;54.316;10.182;2023-08-06T04:05:48;7.30;;;3.40;;
37477;SDS011;23334;54.316;10.182;2023-08-06T04:08:14;6.43;;;3.30;;
37477;SDS011;23334;54.316;10.182;2023-08-06T04:10:40;3.50;;;3.20;;
37477;SDS011;23334;54.316;10.182;2023-08-06T04:13:06;3.97;;;3.30;;
37477;SDS011;23334;54.316;10.182;2023-08-06T04:15:33;9.20;;;3.53;;
37477;SDS011;23334;54.316;10.182;2023-08-06T04:17:59;3.40;;;3.10;;
37477;SDS011;23334;54.316;10.182;2023-08-06T04:20:25;7.07;;;3.10;;
37477;SDS011;23334;54.316;10.182;2023-08-06T04:22:50;4.70;;;3.27;;
37477;SDS011;23334;54.316;10.182;2023-08-06T04:25:16;3.63;;;2.80;;
37477;SDS011;23334;54.316;10.182;2023-08-06T04:27:46;7.27;;;3.33;;
37477;SDS011;23334;54.316;10.182;2023-08-06T04:30:12;3.67;;;2.53;;
37477;SDS011;23334;54.316;10.182;2023-08-06T04:32:38;5.10;;;3.40;;
37477;SDS011;23334;54.316;10.182;2023-08-06T04:35:04;6.13;;;3.40;;
37477;SDS011;23334;54.316;10.182;2023-08-06T04:37:30;3.93;;;3.50;;
37477;SDS011;23334;54.316;10.182;2023-08-06T04:39:56;3.70;;;3.20;;
37477;SDS011;23334;54.316;10.182;2023-08-06T04:42:22;6.50;;;3.00;;
37477;SDS011;23334;54.316;10.182;2023-08-06T04:44:48;3.47;;;2.73;;
37477;SDS011;23334;54.316;10.182;2023-08-06T04:47:14;3.50;;;2.80;;
37477;SDS011;23334;54.316;10.182;2023-08-06T04:49:40;4.00;;;3.10;;
37477;SDS011;23334;54.316;10.182;2023-08-06T04:52:05;3.10;;;2.80;;
37477;SDS011;23334;54.316;10.182;2023-08-06T04:54:31;3.60;;;2.97;;
37477;SDS011;23334;54.316;10.182;2023-08-06T04:56:57;5.83;;;3.30;;
37477;SDS011;23334;54.316;10.182;2023-08-06T04:59:23;4.23;;;2.90;;
37477;SDS011;23334;54.316;10.182;2023-08-06T05:01:49;5.53;;;3.00;;
37477;SDS011;23334;54.316;10.182;2023-08-06T05:04:15;3.03;;;2.73;;
37477;SDS011;23334;54.316;10.182;2023-08-06T05:06:40;3.33;;;3.10;;
37477;SDS011;23334;54.316;10.182;2023-08-06T05:09:06;3.40;;;3.10;;
37477;SDS011;23334;54.316;10.182;2023-08-06T05:11:32;5.80;;;3.20;;
37477;SDS011;23334;54.316;10.182;2023-08-06T05:13:58;4.40;;;2.63;;
37477;SDS011;23334;54.316;10.182;2023-08-06T05:16:24;3.77;;;2.70;;
37477;SDS011;23334;54.316;10.182;2023-08-06T05:18:50;8.97;;;3.17;;
37477;SDS011;23334;54.316;10.182;2023-08-06T05:21:16;3.97;;;3.63;;
37477;SDS011;23334;54.316;10.182;2023-08-06T05:23:42;6.07;;;3.00;;
37477;SDS011;23334;54.316;10.182;2023-08-06T05:26:08;3.40;;;3.10;;
37477;SDS011;23334;54.316;10.182;2023-08-06T05:28:34;7.00;;;3.10;;
37477;SDS011;23334;54.316;10.182;2023-08-06T05:31:04;4.00;;;3.37;;
37477;SDS011;23334;54.316;10.182;2023-08-06T05:33:30;3.50;;;2.73;;
37477;SDS011;23334;54.316;10.182;2023-08-06T05:35:55;7.33;;;2.80;;
37477;SDS011;23334;54.316;10.182;2023-08-06T05:38:21;2.80;;;2.60;;
37477;SDS011;23334;54.316;10.182;2023-08-06T05:40:47;8.70;;;3.10;;
37477;SDS011;23334;54.316;10.182;2023-08-06T05:43:14;2.97;;;2.73;;
37477;SDS011;23334;54.316;10.182;2023-08-06T05:45:39;3.13;;;2.83;;
37477;SDS011;23334;54.316;10.182;2023-08-06T05:48:05;4.93;;;2.60;;
37477;SDS011;23334;54.316;10.182;2023-08-06T05:50:31;2.90;;;2.70;;
37477;SDS011;23334;54.316;10.182;2023-08-06T05:52:57;2.60;;;2.40;;
37477;SDS011;23334;54.316;10.182;2023-08-06T05:55:23;4.40;;;3.10;;
37477;SDS011;23334;54.316;10.182;2023-08-06T05:57:49;4.33;;;2.53;;
37477;SDS011;23334;54.316;10.182;2023-08-06T06:00:17;3.70;;;2.67;;
37477;SDS011;23334;54.316;10.182;2023-08-06T06:02:43;3.93;;;2.90;;
37477;SDS011;23334;54.316;10.182;2023-08-06T06:05:09;2.77;;;2.57;;
37477;SDS011;23334;54.316;10.182;2023-08-06T06:07:35;3.73;;;2.10;;
37477;SDS011;23334;54.316;10.182;2023-08-06T06:10:01;2.87;;;2.53;;
37477;SDS011;23334;54.316;10.182;2023-08-06T06:12:27;2.80;;;2.43;;
37477;SDS011;23334;54.316;10.182;2023-08-06T06:14:53;3.10;;;1.80;;
37477;SDS011;23334;54.316;10.182;2023-08-06T06:17:19;3.00;;;1.90;;
37477;SDS011;23334;54.316;10.182;2023-08-06T06:19:45;3.20;;;2.40;;
37477;SDS011;23334;54.316;10.182;2023-08-06T06:22:10;3.67;;;2.30;;
37477;SDS011;23334;54.316;10.182;2023-08-06T06:24:36;5.40;;;2.63;;
37477;SDS011;23334;54.316;10.182;2023-08-06T06:27:01;2.20;;;2.00;;
37477;SDS011;23334;54.316;10.182;2023-08-06T06:29:27;3.40;;;2.33;;
37477;SDS011;23334;54.316;10.182;2023-08-06T06:31:53;3.97;;;2.53;;
37477;SDS011;23334;54.316;10.182;2023-08-06T06:34:19;2.93;;;2.33;;
37477;SDS011;23334;54.316;10.182;2023-08-06T06:36:45;2.60;;;2.40;;
37477;SDS011;23334;54.316;10.182;2023-08-06T06:39:11;3.23;;;2.43;;
37477;SDS011;23334;54.316;10.182;2023-08-06T06:41:37;2.90;;;2.30;;
37477;SDS011;23334;54.316;10.182;2023-08-06T06:44:03;3.13;;;2.43;;
37477;SDS011;23334;54.316;10.182;2023-08-06T06:46:29;2.27;;;2.00;;
37477;SDS011;23334;54.316;10.182;2023-08-06T06:48:55;3.40;;;2.00;;
37477;SDS011;23334;54.316;10.182;2023-08-06T06:51:21;3.70;;;2.37;;
37477;SDS011;23334;54.316;10.182;2023-08-06T06:53:46;3.93;;;1.80;;
37477;SDS011;23334;54.316;10.182;2023-08-06T06:56:12;4.60;;;2.17;;
37477;SDS011;23334;54.316;10.182;2023-08-06T06:58:38;2.40;;;2.30;;
37477;SDS011;23334;54.316;10.182;2023-08-06T07:01:05;7.23;;;1.70;;
37477;SDS011;23334;54.316;10.182;2023-08-06T07:03:31;2.17;;;1.90;;
37477;SDS011;23334;54.316;10.182;2023-08-06T07:05:57;4.07;;;1.80;;
37477;SDS011;23334;54.316;10.182;2023-08-06T07:08:24;3.40;;;2.10;;
37477;SDS011;23334;54.316;10.182;2023-08-06T07:10:50;2.57;;;2.37;;
37477;SDS011;23334;54.316;10.182;2023-08-06T07:13:16;1.93;;;1.83;;
37477;SDS011;23334;54.316;10.182;2023-08-06T07:15:42;3.97;;;1.77;;
37477;SDS011;23334;54.316;10.182;2023-08-06T07:18:08;1.57;;;1.47;;
37477;SDS011;23334;54.316;10.182;2023-08-06T07:20:34;1.73;;;1.63;;
37477;SDS011;23334;54.316;10.182;2023-08-06T07:23:00;3.43;;;1.80;;
37477;SDS011;23334;54.316;10.182;2023-08-06T07:25:26;2.43;;;2.10;;
37477;SDS011;23334;54.316;10.182;2023-08-06T07:27:52;1.97;;;1.87;;
37477;SDS011;23334;54.316;10.182;2023-08-06T07:30:18;2.60;;;1.40;;
37477;SDS011;23334;54.316;10.182;2023-08-06T07:32:44;2.10;;;1.60;;
37477;SDS011;23334;54.316;10.182;2023-08-06T07:35:10;2.57;;;1.73;;
37477;SDS011;23334;54.316;10.182;2023-08-06T07:37:38;6.67;;;1.80;;
37477;SDS011;23334;54.316;10.182;2023-08-06T07:40:04;2.13;;;1.60;;
37477;SDS011;23334;54.316;10.182;2023-08-06T07:42:30;1.83;;;1.73;;
37477;SDS011;23334;54.316;10.182;2023-08-06T07:44:58;4.30;;;1.27;;
37477;SDS011;23334;54.316;10.182;2023-08-06T07:47:24;1.40;;;1.30;;
37477;SDS011;23334;54.316;10.182;2023-08-06T07:49:49;4.10;;;1.57;;
37477;SDS011;23334;54.316;10.182;2023-08-06T07:52:15;2.50;;;1.83;;
37477;SDS011;23334;54.316;10.182;2023-08-06T07:54:41;3.57;;;1.80;;
37477;SDS011;23334;54.316;10.182;2023-08-06T07:57:07;2.60;;;1.20;;
37477;SDS011;23334;54.316;10.182;2023-08-06T07:59:33;1.40;;;1.30;;
37477;SDS011;23334;54.316;10.182;2023-08-06T08:01:59;4.00;;;1.20;;
37477;SDS011;23334;54.316;10.182;2023-08-06T08:04:25;4.47;;;1.30;;
37477;SDS011;23334;54.316;10.182;2023-08-06T08:06:51;3.40;;;1.47;;
37477;SDS011;23334;54.316;10.182;2023-08-06T08:09:17;2.23;;;1.87;;
37477;SDS011;23334;54.316;10.182;2023-08-06T08:11:43;5.43;;;1.07;;
37477;SDS011;23334;54.316;10.182;2023-08-06T08:14:09;1.73;;;1.50;;
37477;SDS011;23334;54.316;10.182;2023-08-06T08:16:34;2.53;;;2.13;;
37477;SDS011;23334;54.316;10.182;2023-08-06T08:19:00;1.90;;;1.80;;
37477;SDS011;23334;54.316;10.182;2023-08-06T08:21:26;1.63;;;1.53;;
37477;SDS011;23334;54.316;10.182;2023-08-06T08:23:52;3.33;;;1.83;;
37477;SDS011;23334;54.316;10.182;2023-08-06T08:26:18;2.40;;;1.50;;
37477;SDS011;23334;54.316;10.182;2023-08-06T08:28:43;3.67;;;1.77;;
37477;SDS011;23334;54.316;10.182;2023-08-06T08:31:10;2.90;;;1.60;;
37477;SDS011;23334;54.316;10.182;2023-08-06T08:33:36;2.47;;;1.57;;
37477;SDS011;23334;54.316;10.182;2023-08-06T08:36:02;3.00;;;1.60;;
37477;SDS011;23334;54.316;10.182;2023-08-06T08:38:28;1.50;;;1.40;;
37477;SDS011;23334;54.316;10.182;2023-08-06T08:40:54;3.80;;;1.40;;
37477;SDS011;23334;54.316;10.182;2023-08-06T08:43:20;2.53;;;1.77;;
37477;SDS011;23334;54.316;10.182;2023-08-06T08:45:49;1.40;;;1.30;;
37477;SDS011;23334;54.316;10.182;2023-08-06T08:48:15;1.60;;;1.17;;
37477;SDS011;23334;54.316;10.182;2023-08-06T08:50:44;3.73;;;1.50;;
37477;SDS011;23334;54.316;10.182;2023-08-06T08:53:10;1.60;;;1.50;;
37477;SDS011;23334;54.316;10.182;2023-08-06T08:55:37;1.43;;;1.30;;
37477;SDS011;23334;54.316;10.182;2023-08-06T08:58:03;4.10;;;1.63;;
37477;SDS011;23334;54.316;10.182;2023-08-06T09:00:29;2.50;;;1.27;;
37477;SDS011;23334;54.316;10.182;2023-08-06T09:02:55;1.93;;;1.27;;
37477;SDS011;23334;54.316;10.182;2023-08-06T09:05:21;3.10;;;1.50;;
37477;SDS011;23334;54.316;10.182;2023-08-06T09:07:49;2.23;;;1.33;;
37477;SDS011;23334;54.316;10.182;2023-08-06T09:10:17;3.10;;;1.60;;
37477;SDS011;23334;54.316;10.182;2023-08-06T09:12:48;3.40;;;1.20;;
37477;SDS011;23334;54.316;10.182;2023-08-06T09:15:15;2.53;;;1.00;;
37477;SDS011;23334;54.316;10.182;2023-08-06T09:17:41;1.87;;;1.30;;
37477;SDS011;23334;54.316;10.182;2023-08-06T09:20:10;1.80;;;1.30;;
37477;SDS011;23334;54.316;10.182;2023-08-06T09:22:36;1.60;;;1.40;;
37477;SDS011;23334;54.316;10.182;2023-08-06T09:25:01;1.60;;;1.20;;
37477;SDS011;23334;54.316;10.182;2023-08-06T09:27:29;5.20;;;1.17;;
37477;SDS011;23334;54.316;10.182;2023-08-06T09:29:55;2.60;;;1.50;;
37477;SDS011;23334;54.316;10.182;2023-08-06T09:32:21;1.63;;;1.03;;
37477;SDS011;23334;54.316;10.182;2023-08-06T09:34:47;3.37;;;1.40;;
37477;SDS011;23334;54.316;10.182;2023-08-06T09:37:21;1.60;;;1.50;;
37477;SDS011;23334;54.316;10.182;2023-08-06T09:39:47;1.77;;;1.27;;
37477;SDS011;23334;54.316;10.182;2023-08-06T09:42:14;1.83;;;1.00;;
37477;SDS011;23334;54.316;10.182;2023-08-06T09:44:40;1.53;;;1.43;;
37477;SDS011;23334;54.316;10.182;2023-08-06T09:47:05;1.63;;;1.30;;
37477;SDS011;23334;54.316;10.182;2023-08-06T09:52:00;1.50;;;1.40;;
37477;SDS011;23334;54.316;10.182;2023-08-06T09:54:26;1.20;;;1.10;;
37477;SDS011;23334;54.316;10.182;2023-08-06T09:56:53;2.70;;;1.40;;
37477;SDS011;23334;54.316;10.182;2023-08-06T09:59:20;4.20;;;1.30;;
37477;SDS011;23334;54.316;10.182;2023-08-06T10:01:46;1.80;;;1.00;;
37477;SDS011;23334;54.316;10.182;2023-08-06T10:04:13;1.97;;;1.00;;
37477;SDS011;23334;54.316;10.182;2023-08-06T10:06:41;1.40;;;1.17;;
37477;SDS011;23334;54.316;10.182;2023-08-06T10:09:07;2.07;;;1.37;;
37477;SDS011;23334;54.316;10.182;2023-08-06T10:11:34;3.27;;;1.40;;
37477;SDS011;23334;54.316;10.182;2023-08-06T10:16:36;2.27;;;1.50;;
37477;SDS011;23334;54.316;10.182;2023-08-06T10:19:03;2.07;;;1.10;;
37477;SDS011;23334;54.316;10.182;2023-08-06T10:21:32;4.00;;;1.50;;
37477;SDS011;23334;54.316;10.182;2023-08-06T10:23:58;1.67;;;1.57;;
37477;SDS011;23334;54.316;10.182;2023-08-06T10:26:29;1.87;;;1.60;;
37477;SDS011;23334;54.316;10.182;2023-08-06T10:28:55;2.70;;;1.50;;
37477;SDS011;23334;54.316;10.182;2023-08-06T10:34:52;1.70;;;1.60;;
37477;SDS011;23334;54.316;10.182;2023-08-06T10:37:19;3.03;;;1.83;;
37477;SDS011;23334;54.316;10.182;2023-08-06T10:39:49;9.43;;;1.70;;
37477;SDS011;23334;54.316;10.182;2023-08-06T10:42:19;1.63;;;1.40;;
37477;SDS011;23334;54.316;10.182;2023-08-06T10:45:10;3.33;;;1.23;;
37477;SDS011;23334;54.316;10.182;2023-08-06T10:47:40;3.23;;;1.57;;
37477;SDS011;23334;54.316;10.182;2023-08-06T10:50:10;2.23;;;1.43;;
37477;SDS011;23334;54.316;10.182;2023-08-06T10:52:37;3.00;;;1.40;;
37477;SDS011;23334;54.316;10.182;2023-08-06T10:55:03;1.33;;;1.23;;
37477;SDS011;23334;54.316;10.182;2023-08-06T10:57:29;1.63;;;1.40;;
37477;SDS011;23334;54.316;10.182;2023-08-06T10:59:55;1.73;;;1.60;;
37477;SDS011;23334;54.316;10.182;2023-08-06T11:02:21;2.30;;;1.57;;
37477;SDS011;23334;54.316;10.182;2023-08-06T11:04:47;2.00;;;1.40;;
37477;SDS011;23334;54.316;10.182;2023-08-06T11:07:13;1.20;;;1.10;;
37477;SDS011;23334;54.316;10.182;2023-08-06T11:09:39;1.37;;;1.20;;
37477;SDS011;23334;54.316;10.182;2023-08-06T11:12:11;1.27;;;1.17;;
37477;SDS011;23334;54.316;10.182;2023-08-06T11:14:42;2.97;;;1.63;;
37477;SDS011;23334;54.316;10.182;2023-08-06T11:17:15;1.47;;;1.33;;
37477;SDS011;23334;54.316;10.182;2023-08-06T11:19:40;5.80;;;2.20;;
37477;SDS011;23334;54.316;10.182;2023-08-06T11:22:06;1.63;;;1.53;;
37477;SDS011;23334;54.316;10.182;2023-08-06T11:24:31;2.13;;;1.30;;
37477;SDS011;23334;54.316;10.182;2023-08-06T11:26:57;2.03;;;1.50;;
37477;SDS011;23334;54.316;10.182;2023-08-06T11:29:23;2.90;;;1.50;;
37477;SDS011;23334;54.316;10.182;2023-08-06T11:31:49;1.70;;;1.60;;
37477;SDS011;23334;54.316;10.182;2023-08-06T11:34:15;5.23;;;1.40;;
37477;SDS011;23334;54.316;10.182;2023-08-06T11:36:41;1.60;;;1.20;;
37477;SDS011;23334;54.316;10.182;2023-08-06T11:39:07;1.73;;;1.27;;
37477;SDS011;23334;54.316;10.182;2023-08-06T11:41:35;1.97;;;1.30;;
37477;SDS011;23334;54.316;10.182;2023-08-06T11:44:03;1.30;;;1.10;;
37477;SDS011;23334;54.316;10.182;2023-08-06T11:46:29;1.67;;;1.40;;
37477;SDS011;23334;54.316;10.182;2023-08-06T11:49:14;3.00;;;1.40;;
37477;SDS011;23334;54.316;10.182;2023-08-06T11:51:40;1.43;;;1.30;;
37477;SDS011;23334;54.316;10.182;2023-08-06T11:54:06;2.90;;;1.50;;
37477;SDS011;23334;54.316;10.182;2023-08-06T11:56:33;1.70;;;1.40;;
37477;SDS011;23334;54.316;10.182;2023-08-06T11:59:00;1.90;;;1.50;;
37477;SDS011;23334;54.316;10.182;2023-08-06T12:01:26;5.50;;;1.50;;
37477;SDS011;23334;54.316;10.182;2023-08-06T12:03:52;2.80;;;2.10;;
37477;SDS011;23334;54.316;10.182;2023-08-06T12:06:26;7.40;;;1.50;;
37477;SDS011;23334;54.316;10.182;2023-08-06T12:08:52;1.93;;;1.43;;
37477;SDS011;23334;54.316;10.182;2023-08-06T12:11:20;3.53;;;1.53;;
37477;SDS011;23334;54.316;10.182;2023-08-06T12:13:46;2.80;;;1.67;;
37477;SDS011;23334;54.316;10.182;2023-08-06T12:16:16;2.23;;;1.47;;
37477;SDS011;23334;54.316;10.182;2023-08-06T12:18:43;11.27;;;1.77;;
37477;SDS011;23334;54.316;10.182;2023-08-06T12:21:09;2.10;;;1.10;;
37477;SDS011;23334;54.316;10.182;2023-08-06T12:23:35;4.10;;;1.83;;
37477;SDS011;23334;54.316;10.182;2023-08-06T12:26:01;1.83;;;1.23;;
37477;SDS011;23334;54.316;10.182;2023-08-06T12:28:26;3.80;;;1.47;;
37477;SDS011;23334;54.316;10.182;2023-08-06T12:30:52;5.73;;;1.87;;
37477;SDS011;23334;54.316;10.182;2023-08-06T12:33:20;3.37;;;1.67;;
37477;SDS011;23334;54.316;10.182;2023-08-06T12:35:45;1.77;;;1.43;;
37477;SDS011;23334;54.316;10.182;2023-08-06T12:38:11;8.83;;;1.63;;
37477;SDS011;23334;54.316;10.182;2023-08-06T12:40:38;2.80;;;1.50;;
37477;SDS011;23334;54.316;10.182;2023-08-06T12:43:04;1.50;;;1.40;;
37477;SDS011;23334;54.316;10.182;2023-08-06T12:45:29;2.80;;;1.40;;
37477;SDS011;23334;54.316;10.182;2023-08-06T12:47:55;1.30;;;1.20;;
37477;SDS011;23334;54.316;10.182;2023-08-06T12:50:21;1.60;;;1.50;;
37477;SDS011;23334;54.316;10.182;2023-08-06T12:52:46;3.33;;;1.63;;
37477;SDS011;23334;54.316;10.182;2023-08-06T12:55:12;3.63;;;1.50;;
37477;SDS011;23334;54.316;10.182;2023-08-06T12:57:38;1.20;;;1.10;;
37477;SDS011;23334;54.316;10.182;2023-08-06T13:00:03;2.27;;;1.10;;
37477;SDS011;23334;54.316;10.182;2023-08-06T13:02:30;4.77;;;1.50;;
37477;SDS011;23334;54.316;10.182;2023-08-06T13:04:56;2.97;;;1.20;;
37477;SDS011;23334;54.316;10.182;2023-08-06T13:07:21;1.60;;;1.50;;
37477;SDS011;23334;54.316;10.182;2023-08-06T13:09:47;2.87;;;1.30;;
37477;SDS011;23334;54.316;10.182;2023-08-06T13:12:13;2.83;;;1.20;;
37477;SDS011;23334;54.316;10.182;2023-08-06T13:14:39;2.23;;;1.23;;
37477;SDS011;23334;54.316;10.182;2023-08-06T13:17:04;1.03;;;1.00;;
37477;SDS011;23334;54.316;10.182;2023-08-06T13:19:31;2.33;;;1.30;;
37477;SDS011;23334;54.316;10.182;2023-08-06T13:22:06;1.43;;;1.33;;
37477;SDS011;23334;54.316;10.182;2023-08-06T13:24:33;2.00;;;1.50;;
37477;SDS011;23334;54.316;10.182;2023-08-06T13:26:59;1.57;;;1.47;;
37477;SDS011;23334;54.316;10.182;2023-08-06T13:29:25;1.50;;;1.30;;
37477;SDS011;23334;54.316;10.182;2023-08-06T13:31:52;3.33;;;2.20;;
37477;SDS011;23334;54.316;10.182;2023-08-06T13:34:18;1.80;;;1.70;;
37477;SDS011;23334;54.316;10.182;2023-08-06T13:36:44;5.90;;;1.70;;
37477;SDS011;23334;54.316;10.182;2023-08-06T13:39:10;2.10;;;1.33;;
37477;SDS011;23334;54.316;10.182;2023-08-06T13:41:37;1.63;;;1.53;;
37477;SDS011;23334;54.316;10.182;2023-08-06T13:44:04;1.50;;;1.20;;
37477;SDS011;23334;54.316;10.182;2023-08-06T13:46:30;2.40;;;1.70;;
37477;SDS011;23334;54.316;10.182;2023-08-06T13:48:56;2.87;;;1.37;;
37477;SDS011;23334;54.316;10.182;2023-08-06T13:51:22;1.43;;;1.33;;
37477;SDS011;23334;54.316;10.182;2023-08-06T13:53:47;1.87;;;1.40;;
37477;SDS011;23334;54.316;10.182;2023-08-06T13:56:13;1.83;;;1.60;;
37477;SDS011;23334;54.316;10.182;2023-08-06T13:58:42;4.03;;;1.57;;
37477;SDS011;23334;54.316;10.182;2023-08-06T14:01:09;1.57;;;1.27;;
37477;SDS011;23334;54.316;10.182;2023-08-06T14:03:36;1.50;;;1.40;;
37477;SDS011;23334;54.316;10.182;2023-08-06T14:06:01;2.17;;;1.60;;
37477;SDS011;23334;54.316;10.182;2023-08-06T14:08:27;4.60;;;1.20;;
37477;SDS011;23334;54.316;10.182;2023-08-06T14:10:53;3.83;;;1.73;;
37477;SDS011;23334;54.316;10.182;2023-08-06T14:13:19;2.00;;;1.67;;
37477;SDS011;23334;54.316;10.182;2023-08-06T14:15:45;2.07;;;1.70;;
37477;SDS011;23334;54.316;10.182;2023-08-06T14:18:12;2.00;;;1.80;;
37477;SDS011;23334;54.316;10.182;2023-08-06T14:20:39;2.27;;;2.07;;
37477;SDS011;23334;54.316;10.182;2023-08-06T14:23:05;1.63;;;1.40;;
37477;SDS011;23334;54.316;10.182;2023-08-06T14:25:31;5.13;;;1.80;;
37477;SDS011;23334;54.316;10.182;2023-08-06T14:27:56;1.80;;;1.40;;
37477;SDS011;23334;54.316;10.182;2023-08-06T14:30:22;3.00;;;1.10;;
37477;SDS011;23334;54.316;10.182;2023-08-06T14:32:47;1.90;;;1.67;;
37477;SDS011;23334;54.316;10.182;2023-08-06T14:35:13;2.50;;;1.73;;
37477;SDS011;23334;54.316;10.182;2023-08-06T14:37:39;3.73;;;2.90;;
37477;SDS011;23334;54.316;10.182;2023-08-06T14:40:06;2.53;;;1.80;;
37477;SDS011;23334;54.316;10.182;2023-08-06T14:42:32;2.43;;;1.30;;
37477;SDS011;23334;54.316;10.182;2023-08-06T14:44:57;1.50;;;1.40;;